ETNT

Wittmundhafen Airport

Germany
METAR ETNT 181532Z 00000KT 7000 BKN015 03/01 Q1026 WHT GRN TEMPO WHT
Observed Flight Rules
Dec-18 @ 15:32 UTC (52 minutes ago) Marginal Visual Flight Rules
Wind Visibility Clouds
Calm 7,001 meters
  • Broken at 1,500' AGL
Temperatures Readings
Current 3°C / 37°F
Dewpoint 1°C / 34°F
Humidity 87%
Altimeter 30.3" Hg
Pressure 1026 hPa
Elevation 12
METAR ETNT 181532Z 00000KT 7000 BKN015 03/01 Q1026 WHT GRN TEMPO WHT
Observed Flight Rules
Dec-18 @ 15:32 UTC
(52 minutes ago)
MVFR
Wind Visibility
Calm 7,001 meters
Clouds
  • Broken at 1,500' AGL
Temperature Dewpoint
3°C / 37°F 1°C / 34°F
Humidity Altimeter Pressure
87% 30.3" Hg 1026 hPa